createdAt,value
2022-10-02T00:01:11.543Z,33.40
2022-10-02T00:06:08.367Z,38.40
2022-10-02T00:11:08.285Z,26.90
2022-10-02T00:16:08.245Z,33.40
2022-10-02T00:21:08.281Z,36.90
2022-10-02T00:26:08.168Z,27.50
2022-10-02T00:31:08.321Z,39.40
2022-10-02T00:36:08.156Z,39.00
2022-10-02T00:41:07.990Z,31.20
2022-10-02T00:46:08.157Z,44.90
2022-10-02T00:51:07.864Z,45.30
2022-10-02T00:56:08.045Z,34.60
2022-10-02T01:01:07.790Z,43.30
2022-10-02T01:06:07.722Z,40.70
2022-10-02T01:11:07.684Z,39.40
2022-10-02T01:16:07.623Z,33.10
2022-10-02T01:21:07.518Z,41.50
2022-10-02T01:26:07.533Z,47.80
2022-10-02T01:31:07.530Z,35.50
2022-10-02T01:36:07.388Z,43.20
2022-10-02T01:41:07.347Z,34.70
2022-10-02T01:46:07.282Z,40.90
2022-10-02T01:51:07.236Z,45.80
2022-10-02T01:56:07.136Z,49.90
2022-10-02T02:01:07.134Z,41.30
2022-10-02T02:06:07.051Z,44.50
2022-10-02T02:11:07.062Z,52.60
2022-10-02T02:16:07.015Z,46.20
2022-10-02T02:21:06.902Z,41.80
2022-10-02T02:26:06.852Z,45.90
2022-10-02T02:31:06.772Z,53.90
2022-10-02T02:36:06.710Z,45.90
2022-10-02T02:41:07.670Z,50.70
2022-10-02T02:46:06.690Z,48.80
2022-10-02T02:51:06.557Z,46.30
2022-10-02T02:56:06.463Z,43.90
2022-10-02T03:01:06.415Z,55.50
2022-10-02T03:06:06.329Z,57.90
2022-10-02T03:11:06.292Z,53.40
2022-10-02T03:16:06.406Z,48.30
2022-10-02T03:21:06.185Z,44.10
2022-10-02T03:26:06.107Z,51.00
2022-10-02T03:31:06.111Z,58.70
2022-10-02T03:36:06.104Z,46.50
2022-10-02T03:41:05.944Z,52.10
2022-10-02T03:46:05.970Z,64.90
2022-10-02T03:51:05.849Z,61.90
2022-10-02T03:56:05.786Z,57.30
2022-10-02T04:01:05.779Z,72.80
2022-10-02T04:06:05.721Z,66.40
2022-10-02T04:11:05.672Z,63.50
2022-10-02T04:16:05.655Z,67.20
2022-10-02T04:21:05.546Z,60.20
2022-10-02T04:26:05.495Z,46.40
2022-10-02T04:31:05.588Z,51.80
2022-10-02T04:36:05.370Z,33.40
2022-10-02T04:41:05.312Z,29.30
2022-10-02T04:46:05.428Z,29.30
2022-10-02T04:51:05.185Z,29.10
2022-10-02T04:56:05.220Z,31.00
2022-10-02T05:01:05.174Z,20.30
2022-10-02T05:06:05.114Z,15.60
2022-10-02T05:11:05.052Z,19.30
2022-10-02T05:16:05.074Z,18.30
2022-10-02T05:21:04.929Z,16.00
2022-10-02T05:26:04.821Z,12.90
2022-10-02T05:31:04.835Z,15.40
2022-10-02T05:36:04.818Z,15.40
2022-10-02T05:41:04.700Z,16.30
2022-10-02T05:46:04.705Z,13.90
2022-10-02T05:51:04.606Z,15.80
2022-10-02T05:56:04.515Z,13.80
2022-10-02T06:01:04.568Z,16.60
2022-10-02T06:06:04.500Z,15.60
2022-10-02T06:11:04.339Z,21.80
2022-10-02T06:16:04.380Z,20.50
2022-10-02T06:21:04.265Z,17.30
2022-10-02T06:26:04.242Z,23.70
2022-10-02T06:31:04.155Z,27.80
2022-10-02T06:36:04.167Z,19.40
2022-10-02T06:41:04.065Z,30.20
2022-10-02T06:46:04.117Z,27.90
2022-10-02T06:51:04.209Z,32.90
2022-10-02T06:56:03.947Z,35.50
2022-10-02T07:01:07.362Z,35.10
2022-10-02T07:06:03.824Z,29.80
2022-10-02T07:11:03.742Z,27.20
2022-10-02T07:16:03.711Z,28.70
2022-10-02T07:21:03.717Z,21.10
2022-10-02T07:26:03.548Z,19.20
2022-10-02T07:31:03.559Z,17.00
2022-10-02T07:36:03.531Z,22.90
2022-10-02T07:41:03.431Z,20.00
2022-10-02T07:46:03.411Z,18.00
2022-10-02T07:51:03.361Z,21.60
2022-10-02T07:56:03.214Z,17.00
2022-10-02T08:01:03.272Z,15.60
2022-10-02T08:06:03.101Z,16.60
2022-10-02T08:11:03.074Z,17.00
2022-10-02T08:20:58.164Z,14.30
2022-10-02T08:25:58.285Z,13.50
2022-10-02T08:30:58.098Z,20.00
2022-10-02T08:35:58.047Z,20.40
2022-10-02T08:40:57.937Z,24.90
2022-10-02T08:45:58.070Z,24.60
2022-10-02T08:50:57.834Z,19.60
2022-10-02T08:55:57.894Z,20.20
2022-10-02T09:00:58.024Z,23.90
2022-10-02T09:05:57.815Z,28.70
2022-10-02T09:10:58.793Z,28.90
2022-10-02T09:15:57.618Z,27.60
2022-10-02T09:20:58.540Z,29.60
2022-10-02T09:25:57.597Z,23.20
2022-10-02T09:30:57.494Z,26.50
2022-10-02T09:35:57.410Z,22.10
2022-10-02T09:40:57.287Z,21.60
2022-10-02T09:45:57.282Z,24.60
2022-10-02T09:50:57.187Z,23.30
2022-10-02T09:55:57.139Z,20.80
2022-10-02T10:00:57.358Z,19.20
2022-10-02T10:05:57.110Z,21.30
2022-10-02T10:10:56.961Z,15.20
2022-10-02T10:15:56.883Z,15.10
2022-10-02T10:20:57.058Z,14.20
2022-10-02T10:25:56.910Z,14.50
2022-10-02T10:30:56.891Z,15.90
2022-10-02T10:35:56.736Z,14.20
2022-10-02T10:40:57.148Z,13.80
2022-10-02T10:45:56.664Z,10.60
2022-10-02T10:50:56.554Z,9.30
2022-10-02T10:55:56.463Z,15.00
2022-10-02T11:00:56.441Z,12.50
2022-10-02T11:05:56.459Z,12.30
2022-10-02T11:10:56.307Z,14.00
2022-10-02T11:15:56.279Z,14.90
2022-10-02T11:20:56.187Z,11.20
2022-10-02T11:25:56.159Z,10.50
2022-10-02T11:30:56.099Z,12.90
2022-10-02T11:35:56.045Z,11.80
2022-10-02T11:40:55.963Z,10.60
2022-10-02T11:45:55.938Z,16.90
2022-10-02T11:50:55.950Z,17.20
2022-10-02T11:55:55.834Z,12.90
2022-10-02T12:00:55.853Z,15.10
2022-10-02T12:05:55.768Z,14.50
2022-10-02T12:10:55.643Z,16.30
2022-10-02T12:15:55.588Z,17.80
2022-10-02T12:20:55.610Z,15.80
2022-10-02T12:25:56.583Z,16.00
2022-10-02T12:30:55.466Z,21.60
2022-10-02T12:35:55.397Z,16.20
2022-10-02T12:40:55.405Z,13.20
2022-10-02T12:45:55.457Z,17.60
2022-10-02T12:50:55.241Z,11.70
2022-10-02T12:55:55.150Z,11.10
2022-10-02T13:00:56.165Z,12.60
2022-10-02T13:05:55.038Z,14.60
2022-10-02T13:10:54.985Z,15.30
2022-10-02T13:15:54.928Z,19.10
2022-10-02T13:20:54.880Z,9.70
2022-10-02T13:25:54.834Z,15.40
2022-10-02T13:30:54.758Z,16.00
2022-10-02T13:35:54.809Z,13.20
2022-10-02T13:40:54.715Z,13.60
2022-10-02T13:45:54.609Z,16.30
2022-10-02T13:50:54.590Z,12.40
2022-10-02T13:55:54.526Z,16.80
2022-10-02T14:00:54.473Z,13.40
2022-10-02T14:05:57.748Z,18.30
2022-10-02T14:10:54.352Z,15.40
2022-10-02T14:15:54.329Z,20.00
2022-10-02T14:20:54.297Z,10.90
2022-10-02T14:25:54.206Z,17.50
2022-10-02T14:30:54.148Z,22.50
2022-10-02T14:35:54.067Z,17.70
2022-10-02T14:40:54.054Z,17.80
2022-10-02T14:45:53.986Z,16.40
2022-10-02T14:50:53.858Z,13.10
2022-10-02T14:55:54.849Z,14.00
2022-10-02T15:00:53.762Z,13.20
2022-10-02T15:05:53.811Z,12.90
2022-10-02T15:10:53.711Z,17.70
2022-10-02T15:15:53.706Z,15.00
2022-10-02T15:20:53.560Z,15.20
2022-10-02T15:25:53.488Z,14.30
2022-10-02T15:30:53.446Z,14.90
2022-10-02T15:35:53.413Z,18.90
2022-10-02T15:40:53.325Z,16.50
2022-10-02T15:45:53.299Z,20.20
2022-10-02T15:50:53.267Z,17.10
2022-10-02T15:55:53.143Z,14.80
2022-10-02T16:00:53.202Z,19.10
2022-10-02T16:05:53.049Z,17.80
2022-10-02T16:10:53.019Z,22.70
2022-10-02T16:15:53.079Z,14.50
2022-10-02T16:20:52.991Z,15.90
2022-10-02T16:25:52.925Z,17.30
2022-10-02T16:30:52.881Z,15.40
2022-10-02T16:35:52.848Z,14.20
2022-10-02T16:40:52.637Z,15.60
2022-10-02T16:45:52.613Z,12.50
2022-10-02T16:50:52.553Z,11.50
2022-10-02T16:55:52.637Z,13.70
2022-10-02T17:00:52.598Z,14.30
2022-10-02T17:05:52.442Z,17.30
2022-10-02T17:10:52.340Z,13.90
2022-10-02T17:15:52.301Z,15.70
2022-10-02T17:20:52.205Z,21.10
2022-10-02T17:25:53.223Z,17.20
2022-10-02T17:30:52.141Z,14.80
2022-10-02T17:35:52.031Z,16.20
2022-10-02T17:40:51.966Z,12.00
2022-10-02T17:45:52.033Z,15.00
2022-10-02T17:50:51.891Z,14.30
2022-10-02T17:55:51.834Z,13.40
2022-10-02T18:00:51.848Z,14.70
2022-10-02T18:05:51.851Z,14.70
2022-10-02T18:10:51.675Z,14.90
2022-10-02T18:15:51.720Z,17.70
2022-10-02T18:20:51.580Z,18.20
2022-10-02T18:25:51.624Z,18.40
2022-10-02T18:30:51.530Z,15.30
2022-10-02T18:35:51.445Z,11.60
2022-10-02T18:40:51.356Z,21.20
2022-10-02T18:45:51.370Z,15.20
2022-10-02T18:50:51.330Z,19.70
2022-10-02T18:55:51.286Z,15.70
2022-10-02T19:00:51.319Z,15.90
2022-10-02T19:05:51.213Z,18.80
2022-10-02T19:10:51.150Z,20.90
2022-10-02T19:15:51.207Z,17.00
2022-10-02T19:20:51.007Z,20.00
2022-10-02T19:25:50.985Z,18.50
2022-10-02T19:30:50.878Z,13.90
2022-10-02T19:35:50.854Z,18.90
2022-10-02T19:40:50.850Z,18.70
2022-10-02T19:45:50.767Z,17.40
2022-10-02T19:50:50.795Z,20.60
2022-10-02T19:55:50.515Z,31.50
2022-10-02T20:00:52.842Z,23.10
2022-10-02T20:05:50.700Z,18.90
2022-10-02T20:10:53.092Z,18.30
2022-10-02T20:15:50.386Z,24.40
2022-10-02T20:20:50.275Z,16.00
2022-10-02T20:25:50.231Z,33.60
2022-10-02T20:30:50.243Z,17.30
2022-10-02T20:40:36.169Z,23.40
2022-10-02T20:45:36.136Z,23.50
2022-10-02T20:50:35.989Z,20.00
2022-10-02T20:55:37.086Z,19.10
2022-10-02T21:00:35.993Z,21.60
2022-10-02T21:05:36.891Z,17.20
2022-10-02T21:10:35.802Z,23.30
2022-10-02T21:15:35.775Z,29.30
2022-10-02T21:20:50.357Z,15.90
2022-10-02T21:25:36.629Z,18.10
2022-10-02T21:30:35.593Z,22.20
2022-10-02T21:35:35.508Z,25.80
2022-10-02T21:40:35.831Z,24.00
2022-10-02T21:45:35.867Z,23.10
2022-10-02T21:50:37.613Z,20.60
2022-10-02T21:55:38.654Z,16.10
2022-10-02T22:00:37.730Z,24.90
2022-10-02T22:05:35.418Z,23.90
2022-10-02T22:10:35.283Z,24.50
2022-10-02T22:15:40.837Z,23.60
2022-10-02T22:20:35.185Z,29.60
2022-10-02T22:25:35.407Z,23.70
2022-10-02T22:30:35.126Z,18.50
2022-10-02T22:35:34.831Z,21.00
2022-10-02T22:40:34.785Z,27.40
2022-10-02T22:45:34.803Z,23.10
2022-10-02T22:50:34.659Z,18.70
2022-10-02T22:55:35.046Z,21.90
2022-10-02T23:00:34.751Z,20.60
2022-10-02T23:05:34.621Z,24.00
2022-10-02T23:10:36.619Z,22.80
2022-10-02T23:15:34.527Z,27.90
2022-10-02T23:20:34.543Z,19.60
2022-10-02T23:25:37.960Z,29.40
2022-10-02T23:30:34.256Z,14.60
2022-10-02T23:35:34.191Z,27.20
2022-10-02T23:40:34.153Z,23.10
2022-10-02T23:45:34.081Z,17.40
2022-10-02T23:50:34.122Z,19.80
